createdAt,value
2019-06-01T00:01:50.212Z,16.80
2019-06-01T00:04:29.357Z,16.97
2019-06-01T00:07:06.912Z,18.52
2019-06-01T00:09:45.163Z,16.20
2019-06-01T00:12:22.928Z,22.62
2019-06-01T00:15:01.412Z,19.48
2019-06-01T00:17:40.270Z,15.72
2019-06-01T00:20:30.440Z,17.82
2019-06-01T00:23:08.096Z,18.20
2019-06-01T00:25:46.476Z,15.30
2019-06-01T00:28:24.045Z,18.90
2019-06-01T00:31:01.360Z,16.95
2019-06-01T00:33:38.650Z,19.80
2019-06-01T00:36:28.119Z,14.40
2019-06-01T00:39:12.781Z,14.15
2019-06-01T00:41:50.390Z,13.60
2019-06-01T00:44:27.717Z,13.05
2019-06-01T00:47:05.083Z,12.53
2019-06-01T00:49:42.671Z,14.07
2019-06-01T00:52:20.135Z,14.53
2019-06-01T00:54:58.163Z,17.12
2019-06-01T00:57:37.177Z,15.32
2019-06-01T01:00:14.898Z,16.80
2019-06-01T01:02:52.275Z,15.20
2019-06-01T01:05:29.535Z,14.83
2019-06-01T01:08:06.793Z,15.38
2019-06-01T01:10:44.828Z,19.45
2019-06-01T01:13:23.998Z,15.55
2019-06-01T01:16:01.455Z,14.87
2019-06-01T01:18:38.814Z,14.95
2019-06-01T01:21:16.185Z,16.07
2019-06-01T01:23:54.751Z,19.87
2019-06-01T01:26:32.027Z,14.65
2019-06-01T01:29:09.355Z,16.93
2019-06-01T01:31:47.055Z,17.42
2019-06-01T01:34:25.572Z,19.17
2019-06-01T01:37:03.112Z,18.27
2019-06-01T01:39:40.753Z,17.55
2019-06-01T01:42:18.110Z,19.87
2019-06-01T01:45:01.631Z,19.00
2019-06-01T01:47:40.000Z,20.48
2019-06-01T01:50:17.948Z,24.30
2019-06-01T01:52:56.837Z,20.45
2019-06-01T01:55:34.501Z,18.73
2019-06-01T01:58:12.022Z,23.22
2019-06-01T02:00:52.958Z,26.30
2019-06-01T02:03:30.810Z,26.00
2019-06-01T02:06:08.606Z,25.95
2019-06-01T02:08:46.036Z,33.83
2019-06-01T02:11:23.466Z,31.05
2019-06-01T02:14:02.065Z,31.20
2019-06-01T02:16:39.697Z,31.65
2019-06-01T02:19:17.051Z,30.72
2019-06-01T02:21:54.507Z,34.27
2019-06-01T02:24:32.779Z,29.23
2019-06-01T02:27:10.331Z,27.87
2019-06-01T02:29:47.853Z,31.07
2019-06-01T02:32:25.838Z,25.97
2019-06-01T02:35:05.039Z,25.02
2019-06-01T02:37:43.100Z,24.57
2019-06-01T02:40:21.090Z,23.98
2019-06-01T02:42:59.280Z,27.58
2019-06-01T02:45:37.323Z,27.70
2019-06-01T02:48:14.706Z,28.25
2019-06-01T02:50:52.338Z,26.48
2019-06-01T02:53:30.800Z,20.60
2019-06-01T02:56:08.154Z,24.07
2019-06-01T02:58:45.568Z,23.95
2019-06-01T03:01:35.529Z,24.15
2019-06-01T03:04:13.107Z,27.80
2019-06-01T03:06:52.829Z,27.07
2019-06-01T03:09:32.507Z,25.08
2019-06-01T03:12:12.732Z,25.57
2019-06-01T03:14:52.154Z,23.33
2019-06-01T03:17:32.688Z,23.52
2019-06-01T03:20:11.899Z,23.40
2019-06-01T03:22:53.375Z,26.52
2019-06-01T03:25:31.578Z,25.57
2019-06-01T03:28:12.435Z,23.70
2019-06-01T03:30:49.912Z,21.60
2019-06-01T03:33:27.970Z,27.75
2019-06-01T03:36:06.921Z,23.05
2019-06-01T03:38:45.656Z,21.40
2019-06-01T03:41:23.044Z,19.55
2019-06-01T03:44:02.418Z,20.75
2019-06-01T03:46:41.023Z,20.50
2019-06-01T03:49:19.700Z,19.52
2019-06-01T03:51:57.803Z,18.92
2019-06-01T03:54:35.689Z,21.05
2019-06-01T03:57:13.631Z,23.05
2019-06-01T03:59:50.942Z,24.35
2019-06-01T04:02:33.109Z,17.57
2019-06-01T04:05:09.339Z,23.30
2019-06-01T04:07:47.820Z,17.85
2019-06-01T04:10:25.220Z,16.77
2019-06-01T04:13:03.540Z,16.60
2019-06-01T04:15:41.428Z,24.72
2019-06-01T04:18:18.845Z,19.62
2019-06-01T04:20:56.307Z,17.85
2019-06-01T04:23:36.373Z,15.88
2019-06-01T04:26:13.779Z,14.78
2019-06-01T04:28:51.137Z,16.85
2019-06-01T04:31:29.453Z,18.85
2019-06-01T04:34:07.061Z,15.65
2019-06-01T04:36:44.626Z,13.22
2019-06-01T04:39:22.471Z,16.97
2019-06-01T04:42:00.597Z,13.95
2019-06-01T04:44:38.894Z,12.85
2019-06-01T04:47:16.606Z,22.93
2019-06-01T04:49:55.064Z,16.67
2019-06-01T04:52:43.770Z,15.78
2019-06-01T04:55:21.105Z,13.75
2019-06-01T04:57:59.119Z,14.53
2019-06-01T05:00:36.648Z,13.60
2019-06-01T05:03:15.217Z,13.40
2019-06-01T05:05:53.126Z,16.45
2019-06-01T05:08:31.678Z,12.30
2019-06-01T05:11:10.257Z,13.20
2019-06-01T05:13:48.032Z,13.40
2019-06-01T05:16:25.523Z,11.80
2019-06-01T05:19:03.920Z,12.15
2019-06-01T05:21:41.312Z,14.38
2019-06-01T05:24:19.355Z,11.68
2019-06-01T05:26:57.198Z,8.30
2019-06-01T05:29:34.428Z,17.02
2019-06-01T05:32:12.605Z,9.43
2019-06-01T05:34:50.061Z,8.45
2019-06-01T05:37:27.458Z,14.65
2019-06-01T05:40:05.535Z,9.43
2019-06-01T05:42:42.957Z,9.33
2019-06-01T05:45:22.852Z,7.75
2019-06-01T05:48:00.342Z,7.43
2019-06-01T05:50:37.790Z,7.33
2019-06-01T05:53:15.035Z,6.12
2019-06-01T05:55:52.495Z,6.67
2019-06-01T05:58:30.105Z,7.03
2019-06-01T06:01:07.436Z,13.20
2019-06-01T06:03:44.836Z,8.60
2019-06-01T06:06:22.541Z,5.65
2019-06-01T06:09:00.113Z,8.40
2019-06-01T06:11:37.954Z,5.90
2019-06-01T06:14:15.512Z,9.23
2019-06-01T06:16:53.977Z,6.33
2019-06-01T06:19:31.305Z,9.23
2019-06-01T06:22:08.717Z,7.95
2019-06-01T06:24:46.031Z,5.45
2019-06-01T06:27:23.291Z,6.95
2019-06-01T06:30:00.686Z,5.25
2019-06-01T06:32:38.232Z,6.10
2019-06-01T06:35:15.527Z,4.50
2019-06-01T06:37:54.386Z,4.67
2019-06-01T06:40:31.703Z,4.17
2019-06-01T06:43:18.985Z,3.87
2019-06-01T06:45:48.197Z,7.17
2019-06-01T06:48:26.781Z,6.28
2019-06-01T06:51:04.231Z,4.35
2019-06-01T06:53:41.870Z,4.62
2019-06-01T06:56:19.942Z,5.20
2019-06-01T06:58:57.383Z,3.90
2019-06-01T07:01:34.641Z,3.58
2019-06-01T07:04:13.225Z,3.90
2019-06-01T07:06:51.902Z,4.17
2019-06-01T07:09:29.867Z,3.85
2019-06-01T07:12:07.425Z,4.47
2019-06-01T07:14:44.728Z,7.05
2019-06-01T07:17:22.004Z,11.35
2019-06-01T07:19:59.658Z,6.53
2019-06-01T07:22:37.028Z,5.30
2019-06-01T07:25:14.824Z,5.20
2019-06-01T07:27:52.517Z,4.97
2019-06-01T07:30:29.776Z,5.87
2019-06-01T07:33:06.988Z,4.87
2019-06-01T07:35:44.447Z,4.50
2019-06-01T07:38:22.319Z,5.05
2019-06-01T07:40:59.906Z,5.00
2019-06-01T07:43:37.351Z,4.78
2019-06-01T07:46:15.624Z,4.67
2019-06-01T07:48:53.080Z,5.75
2019-06-01T07:51:31.646Z,5.92
2019-06-01T07:54:09.299Z,7.35
2019-06-01T07:56:46.954Z,6.92
2019-06-01T07:59:26.251Z,6.92
2019-06-01T08:02:04.169Z,7.08
2019-06-01T08:04:53.152Z,5.47
2019-06-01T08:07:23.292Z,6.78
2019-06-01T08:10:01.850Z,10.30
2019-06-01T08:12:39.618Z,5.50
2019-06-01T08:15:17.141Z,6.62
2019-06-01T08:17:54.500Z,4.65
2019-06-01T08:20:32.264Z,9.45
2019-06-01T08:23:09.515Z,10.28
2019-06-01T08:25:46.908Z,9.20
2019-06-01T08:28:24.837Z,8.95
2019-06-01T08:31:02.458Z,11.60
2019-06-01T08:33:40.070Z,14.15
2019-06-01T08:36:27.305Z,9.15
2019-06-01T08:39:06.882Z,12.10
2019-06-01T08:41:44.183Z,9.20
2019-06-01T08:44:21.521Z,7.97
2019-06-01T08:46:58.784Z,9.68
2019-06-01T08:49:35.996Z,8.50
2019-06-01T08:52:13.414Z,14.87
2019-06-01T08:54:50.736Z,21.12
2019-06-01T08:57:28.310Z,14.70
2019-06-01T09:00:07.516Z,9.40
2019-06-01T09:02:45.910Z,11.80
2019-06-01T09:05:26.106Z,8.88
2019-06-01T09:08:02.123Z,12.13
2019-06-01T09:10:50.936Z,9.68
2019-06-01T09:13:29.125Z,8.73
2019-06-01T09:16:06.745Z,11.78
2019-06-01T09:18:44.454Z,9.63
2019-06-01T09:21:22.145Z,9.50
2019-06-01T09:24:10.967Z,10.63
2019-06-01T09:26:50.053Z,15.23
2019-06-01T09:29:27.831Z,10.80
2019-06-01T09:32:10.569Z,12.33
2019-06-01T09:34:44.908Z,9.48
2019-06-01T09:37:22.401Z,10.72
2019-06-01T09:39:59.712Z,9.70
2019-06-01T09:42:38.529Z,9.65
2019-06-01T09:45:16.437Z,7.75
2019-06-01T09:47:53.968Z,8.03
2019-06-01T09:50:31.390Z,7.72
2019-06-01T09:53:08.757Z,8.05
2019-06-01T09:55:46.074Z,10.28
2019-06-01T09:58:23.385Z,10.98
2019-06-01T10:01:00.875Z,8.25
2019-06-01T10:03:38.674Z,7.00
2019-06-01T10:06:16.480Z,6.47
2019-06-01T10:08:53.699Z,9.00
2019-06-01T10:11:32.518Z,6.28
2019-06-01T10:14:10.236Z,7.58
2019-06-01T10:16:47.614Z,6.03
2019-06-01T10:19:24.891Z,8.58
2019-06-01T10:22:03.461Z,10.13
2019-06-01T10:24:42.033Z,7.67
2019-06-01T10:27:19.853Z,6.33
2019-06-01T10:29:57.318Z,6.87
2019-06-01T10:32:35.642Z,13.13
2019-06-01T10:35:13.461Z,7.78
2019-06-01T10:37:50.931Z,7.17
2019-06-01T10:40:28.358Z,9.98
2019-06-01T10:43:06.176Z,13.10
2019-06-01T10:45:43.850Z,7.33
2019-06-01T10:48:21.038Z,8.15
2019-06-01T10:50:58.563Z,9.45
2019-06-01T10:53:38.113Z,14.85
2019-06-01T10:56:15.592Z,7.42
2019-06-01T10:58:59.961Z,15.70
2019-06-01T11:01:34.162Z,8.70
2019-06-01T11:04:10.934Z,13.43
2019-06-01T11:06:48.954Z,7.78
2019-06-01T11:09:26.942Z,9.83
2019-06-01T11:12:04.564Z,11.33
2019-06-01T11:14:41.770Z,8.00
2019-06-01T11:17:25.384Z,6.87
2019-06-01T11:20:06.466Z,10.28
2019-06-01T11:22:44.858Z,11.08
2019-06-01T11:25:22.741Z,7.28
2019-06-01T11:28:01.435Z,7.50
2019-06-01T11:30:39.957Z,7.25
2019-06-01T11:33:19.113Z,8.05
2019-06-01T11:35:56.515Z,7.85
2019-06-01T11:38:45.196Z,11.30
2019-06-01T11:41:23.020Z,11.43
2019-06-01T11:44:02.459Z,7.80
2019-06-01T11:46:41.113Z,6.15
2019-06-01T11:49:21.258Z,7.78
2019-06-01T11:51:59.151Z,7.47
2019-06-01T11:54:37.095Z,7.55
2019-06-01T11:57:14.494Z,15.00
2019-06-01T11:59:52.015Z,12.23
2019-06-01T12:02:29.160Z,11.70
2019-06-01T12:05:08.290Z,11.78
2019-06-01T12:07:46.627Z,60.55
2019-06-01T12:10:23.825Z,7.75
2019-06-01T12:13:01.590Z,6.08
2019-06-01T12:15:40.296Z,6.67
2019-06-01T12:18:18.854Z,8.08
2019-06-01T12:20:56.236Z,8.23
2019-06-01T12:23:33.647Z,8.98
2019-06-01T12:26:22.970Z,11.15
2019-06-01T12:29:00.292Z,9.65
2019-06-01T12:31:37.985Z,5.10
2019-06-01T12:34:15.282Z,7.17
2019-06-01T12:36:52.439Z,7.58
2019-06-01T12:39:30.134Z,7.58
2019-06-01T12:42:07.572Z,6.97
2019-06-01T12:44:45.876Z,10.25
2019-06-01T12:47:23.366Z,7.33
2019-06-01T12:50:02.101Z,7.92
2019-06-01T12:52:40.488Z,10.15
2019-06-01T12:55:18.215Z,6.58
2019-06-01T12:57:55.992Z,11.18
2019-06-01T13:00:33.267Z,10.25
2019-06-01T13:03:10.794Z,12.15
2019-06-01T13:05:47.991Z,7.22
2019-06-01T13:08:26.601Z,8.45
2019-06-01T13:11:04.927Z,7.12
2019-06-01T13:13:43.178Z,6.72
2019-06-01T13:16:20.639Z,11.35
2019-06-01T13:18:58.015Z,8.60
2019-06-01T13:21:35.405Z,7.42
2019-06-01T13:24:12.823Z,8.95
2019-06-01T13:26:50.225Z,17.25
2019-06-01T13:29:27.586Z,13.22
2019-06-01T13:32:06.087Z,11.90
2019-06-01T13:34:44.689Z,8.65
2019-06-01T13:37:22.038Z,14.90
2019-06-01T13:39:59.453Z,11.35
2019-06-01T13:42:37.021Z,11.63
2019-06-01T13:45:15.191Z,9.00
2019-06-01T13:47:54.140Z,8.93
2019-06-01T13:50:31.805Z,8.73
2019-06-01T13:53:09.100Z,15.98
2019-06-01T13:55:46.535Z,7.00
2019-06-01T13:58:23.848Z,8.20
2019-06-01T14:01:01.275Z,13.48
2019-06-01T14:03:38.684Z,12.53
2019-06-01T14:06:15.989Z,11.43
2019-06-01T14:08:53.785Z,17.05
2019-06-01T14:11:31.407Z,9.53
2019-06-01T14:14:08.767Z,12.53
2019-06-01T14:16:47.507Z,13.43
2019-06-01T14:19:25.537Z,10.03
2019-06-01T14:22:03.034Z,10.48
2019-06-01T14:24:43.855Z,10.35
2019-06-01T14:27:19.371Z,12.98
2019-06-01T14:29:57.247Z,9.15
2019-06-01T14:32:34.867Z,11.78
2019-06-01T14:35:12.336Z,13.40
2019-06-01T14:37:51.230Z,17.40
2019-06-01T14:40:28.858Z,10.40
2019-06-01T14:43:06.148Z,7.10
2019-06-01T14:45:43.528Z,9.98
2019-06-01T14:48:21.194Z,11.50
2019-06-01T14:50:59.020Z,10.60
2019-06-01T14:53:36.358Z,13.22
2019-06-01T14:56:14.225Z,12.63
2019-06-01T14:58:51.939Z,10.25
2019-06-01T15:01:32.854Z,11.73
2019-06-01T15:04:11.368Z,7.80
2019-06-01T15:06:50.098Z,11.30
2019-06-01T15:09:28.769Z,15.17
2019-06-01T15:12:06.285Z,11.22
2019-06-01T15:14:44.128Z,11.10
2019-06-01T15:17:21.405Z,8.68
2019-06-01T15:19:59.621Z,8.30
2019-06-01T15:22:36.932Z,12.78
2019-06-01T15:25:14.623Z,8.63
2019-06-01T15:27:52.665Z,24.12
2019-06-01T15:30:30.244Z,18.35
2019-06-01T15:33:09.006Z,21.37
2019-06-01T15:35:46.427Z,32.98
2019-06-01T15:38:23.602Z,25.72
2019-06-01T15:41:00.896Z,26.00
2019-06-01T15:43:38.498Z,25.97
2019-06-01T15:46:15.811Z,24.65
2019-06-01T15:48:53.627Z,25.48
2019-06-01T15:51:31.915Z,30.37
2019-06-01T15:54:09.135Z,34.67
2019-06-01T15:56:47.351Z,28.25
2019-06-01T15:59:24.653Z,30.92
2019-06-01T16:02:03.292Z,29.42
2019-06-01T16:04:40.919Z,31.87
2019-06-01T16:07:19.600Z,31.33
2019-06-01T16:09:57.746Z,36.75
2019-06-01T16:12:36.092Z,32.38
2019-06-01T16:15:14.242Z,27.65
2019-06-01T16:17:51.960Z,30.48
2019-06-01T16:20:29.257Z,28.83
2019-06-01T16:23:06.898Z,24.05
2019-06-01T16:25:49.977Z,24.50
2019-06-01T16:28:25.284Z,28.27
2019-06-01T16:31:04.830Z,30.37
2019-06-01T16:33:43.287Z,30.10
2019-06-01T16:36:22.285Z,27.50
2019-06-01T16:39:04.390Z,28.10
2019-06-01T16:41:40.538Z,28.83
2019-06-01T16:44:19.951Z,22.15
2019-06-01T16:46:57.670Z,20.75
2019-06-01T16:49:35.920Z,20.90
2019-06-01T16:52:13.256Z,21.48
2019-06-01T16:54:51.839Z,25.82
2019-06-01T16:57:29.679Z,20.92
2019-06-01T17:00:10.003Z,22.52
2019-06-01T17:02:47.881Z,22.15
2019-06-01T17:05:25.110Z,20.43
2019-06-01T17:08:02.796Z,29.92
2019-06-01T17:10:40.621Z,27.00
2019-06-01T17:13:18.045Z,25.82
2019-06-01T17:15:56.887Z,24.32
2019-06-01T17:18:35.555Z,22.50
2019-06-01T17:21:13.055Z,21.57
2019-06-01T17:23:50.462Z,22.15
2019-06-01T17:26:27.938Z,23.05
2019-06-01T17:29:06.214Z,20.12
2019-06-01T17:31:54.060Z,21.70
2019-06-01T17:34:24.284Z,21.20
2019-06-01T17:37:02.726Z,18.60
2019-06-01T17:39:40.485Z,19.55
2019-06-01T17:42:17.798Z,15.08
2019-06-01T17:44:55.529Z,16.97
2019-06-01T17:47:32.885Z,14.70
2019-06-01T17:50:11.783Z,22.55
2019-06-01T17:52:50.680Z,18.15
2019-06-01T17:55:32.935Z,16.25
2019-06-01T17:58:12.192Z,14.23
2019-06-01T18:00:50.642Z,22.70
2019-06-01T18:03:28.510Z,63.10
2019-06-01T18:06:07.780Z,24.67
2019-06-01T18:08:45.420Z,27.22
2019-06-01T18:11:23.283Z,21.85
2019-06-01T18:14:02.116Z,23.42
2019-06-01T18:16:40.128Z,20.25
2019-06-01T18:19:17.661Z,17.35
2019-06-01T18:21:55.098Z,22.85
2019-06-01T18:24:32.849Z,21.50
2019-06-01T18:27:10.666Z,24.18
2019-06-01T18:29:49.755Z,25.50
2019-06-01T18:32:32.607Z,21.48
2019-06-01T18:35:19.471Z,63.10
2019-06-01T18:37:55.150Z,150.45
2019-06-01T18:40:32.479Z,30.12
2019-06-01T18:43:14.645Z,28.38
2019-06-01T18:45:51.952Z,39.30
2019-06-01T18:48:29.619Z,27.62
2019-06-01T18:51:08.162Z,33.18
2019-06-01T18:53:45.827Z,37.83
2019-06-01T18:56:23.569Z,25.90
2019-06-01T18:59:01.381Z,26.27
2019-06-01T19:01:39.169Z,24.70
2019-06-01T19:04:16.623Z,29.12
2019-06-01T19:06:54.107Z,21.17
2019-06-01T19:09:31.947Z,24.60
2019-06-01T19:12:09.140Z,29.52
2019-06-01T19:15:02.223Z,23.70
2019-06-01T19:17:40.447Z,28.02
2019-06-01T19:20:18.716Z,24.32
2019-06-01T19:22:56.005Z,26.73
2019-06-01T19:25:33.628Z,30.77
2019-06-01T19:28:13.114Z,25.17
2019-06-01T19:30:50.916Z,24.55
2019-06-01T19:33:28.727Z,27.40
2019-06-01T19:36:06.937Z,33.20
2019-06-01T19:38:46.872Z,30.43
2019-06-01T19:41:25.590Z,26.68
2019-06-01T19:44:03.018Z,28.73
2019-06-01T19:46:41.604Z,30.43
2019-06-01T19:49:19.301Z,33.73
2019-06-01T19:51:56.733Z,28.42
2019-06-01T19:54:34.503Z,29.12
2019-06-01T19:57:11.885Z,33.08
2019-06-01T19:59:49.481Z,31.93
2019-06-01T20:02:33.759Z,31.97
2019-06-01T20:05:06.676Z,31.60
2019-06-01T20:07:45.264Z,37.48
2019-06-01T20:10:23.285Z,34.10
2019-06-01T20:13:01.446Z,35.48
2019-06-01T20:15:38.946Z,35.48
2019-06-01T20:18:19.089Z,35.30
2019-06-01T20:20:56.572Z,35.50
2019-06-01T20:23:33.938Z,33.48
2019-06-01T20:26:11.300Z,34.63
2019-06-01T20:28:52.254Z,39.42
2019-06-01T20:31:29.727Z,39.65
2019-06-01T20:34:07.592Z,35.50
2019-06-01T20:36:45.392Z,34.10
2019-06-01T20:39:23.274Z,36.68
2019-06-01T20:42:17.230Z,40.30
2019-06-01T20:44:43.570Z,34.98
2019-06-01T20:47:22.879Z,37.67
2019-06-01T20:50:00.471Z,45.15
2019-06-01T20:52:38.216Z,37.78
2019-06-01T20:55:17.401Z,36.83
2019-06-01T20:57:55.571Z,35.23
2019-06-01T21:00:33.078Z,34.75
2019-06-01T21:03:10.508Z,33.23
2019-06-01T21:05:48.463Z,34.40
2019-06-01T21:08:28.702Z,29.57
2019-06-01T21:13:44.316Z,26.55
2019-06-01T21:16:22.383Z,27.55
2019-06-01T21:19:00.629Z,29.67
2019-06-01T21:21:38.325Z,31.60
2019-06-01T21:24:16.856Z,37.63
2019-06-01T21:26:54.535Z,34.10
2019-06-01T21:29:32.004Z,36.90
2019-06-01T21:32:09.786Z,40.40
2019-06-01T21:34:48.690Z,35.35
2019-06-01T21:37:26.555Z,43.25
2019-06-01T21:40:04.342Z,41.98
2019-06-01T21:42:41.681Z,41.45
2019-06-01T21:45:19.565Z,40.17
2019-06-01T21:47:58.322Z,42.65
2019-06-01T21:50:35.757Z,42.00
2019-06-01T21:53:13.171Z,37.08
2019-06-01T21:55:50.394Z,38.78
2019-06-01T21:58:28.374Z,35.15
2019-06-01T22:01:08.448Z,36.80
2019-06-01T22:03:46.851Z,35.03
2019-06-01T22:06:25.619Z,35.40
2019-06-01T22:09:03.726Z,36.50
2019-06-01T22:11:43.316Z,38.10
2019-06-01T22:14:21.393Z,38.02
2019-06-01T22:16:58.754Z,33.20
2019-06-01T22:19:36.001Z,37.33
2019-06-01T22:22:13.602Z,34.92
2019-06-01T22:24:51.030Z,36.58
2019-06-01T22:27:28.566Z,34.73
2019-06-01T22:30:07.936Z,39.75
2019-06-01T22:32:45.981Z,39.73
2019-06-01T22:35:24.663Z,40.78
2019-06-01T22:38:03.371Z,39.30
2019-06-01T22:40:40.801Z,40.20
2019-06-01T22:43:32.887Z,37.98
2019-06-01T22:45:57.515Z,40.67
2019-06-01T22:48:35.469Z,36.95
2019-06-01T22:51:13.489Z,34.13
2019-06-01T22:53:52.387Z,32.33
